Dai28 Aominesanmaru — JH3345 — position and weather

sailwx.info

Track history (hours):
 
Tides and Currents Weather Stations Pressure Air Temp Water Temp Dewpoint Dewpoint Depression Visibility Wind Speed Wind Dir Waves Ship Positions

Dai28 Aominesanmaru

Last reported at 2017-Dec-15 06:58 UTC. Time now 2017-Dec-15 20:01 UTC.
Position N 35°31' E 139°45'.

Length 47 m.

Type: Tanker. MMSI: 431008216.

Date/timePositionNaut miles runAvg speedWind from/ knotsBaromVisibWave heightAir tempDewpointWater temp
2017-Dec-15 06:58N 35°31' E 139°45'1 3.1
2017-Dec-15 06:30N 35°30' E 139°44'5 9.1
2017-Dec-15 06:00N 35°25' E 139°42'4 6.1
2017-Dec-15 05:26N 35°25' E 139°38'0 0.0
2017-Dec-15 04:59N 35°25' E 139°38'0 0.0
2017-Dec-15 04:29N 35°25' E 139°38'0 0.8
2017-Dec-15 03:59N 35°25' E 139°38'7 4.8
2017-Dec-15 02:29N 35°27' E 139°46'0 0.0
2017-Dec-15 01:00N 35°27' E 139°46'3 6.0
2017-Dec-15 00:30N 35°30' E 139°45'1 0.0
2017-Dec-14 02:26N 35°31' E 139°45'2 4.3
2017-Dec-14 02:00N 35°29' E 139°43'3 4.9
2017-Dec-14 01:28N 35°28' E 139°40'0 0.0
2017-Dec-14 00:57N 35°28' E 139°40'0 0.0
2017-Dec-14 00:31N 35°28' E 139°40'0 0.0
2017-Dec-14 00:01N 35°28' E 139°40'0 0.0
2017-Dec-13 23:30N 35°28' E 139°40'3 5.8
2017-Dec-13 23:00N 35°30' E 139°44'2 3.1
2017-Dec-13 22:29N 35°31' E 139°45'0 0.0
2017-Dec-13 21:59N 35°31' E 139°45'0 0.0
2017-Dec-13 05:51N 35°31' E 139°45'1 3.4
2017-Dec-13 05:30N 35°31' E 139°46'8 2.9
2017-Dec-13 02:33N 35°34' E 139°56'310.5
2017-Dec-13 02:17N 35°33' E 139°59'310.5
2017-Dec-13 02:00N 35°33' E 140°03'2 3.4
2017-Dec-13 01:30N 35°33' E 140°05'0 0.0
2017-Dec-13 01:00N 35°33' E 140°05'0 0.0
2017-Dec-13 00:30N 35°33' E 140°05'0 0.0
2017-Dec-13 00:00N 35°33' E 140°05'1 2.3
2017-Dec-12 23:30N 35°33' E 140°03'1011.0
2017-Dec-12 22:38N 35°31' E 139°52'211.1
2017-Dec-12 22:27N 35°31' E 139°49'4 0.2
2017-Dec-12 02:08N 35°31' E 139°45'0 0.0
2017-Dec-12 01:59N 35°31' E 139°45'2 4.1
2017-Dec-12 01:22N 35°30' E 139°48'2 1.7
2017-Dec-12 00:14N 35°30' E 139°50'0 0.0
2017-Dec-11 22:01N 35°30' E 139°50'0 1.5
2017-Dec-11 21:59N 35°30' E 139°50'4 7.4
2017-Dec-11 21:24N 35°31' E 139°45'0 0.0
2017-Dec-11 21:00N 35°31' E 139°45'0 0.0
2017-Dec-11 02:17N 35°31' E 139°45'0 0.0
2017-Dec-11 02:00N 35°31' E 139°45'4 8.1
2017-Dec-11 01:28N 35°31' E 139°50'1 0.3
2017-Dec-10 21:10N 35°31' E 139°51'211.0
2017-Dec-10 20:59N 35°30' E 139°49'4 5.3
2017-Dec-10 20:17N 35°31' E 139°45'0 0.0
2017-Dec-10 19:56N 35°31' E 139°45'0 0.0
2017-Dec-10 05:05N 35°31' E 139°45'0 0.0
2017-Dec-10 04:59N 35°31' E 139°45'1 1.8
2017-Dec-10 04:31N 35°30' E 139°45'5 8.8
2017-Dec-10 03:59N 35°26' E 139°42'3 6.4
2017-Dec-10 03:30N 35°24' E 139°39'1 1.6
2017-Dec-10 03:00N 35°25' E 139°38'0 0.0
2017-Dec-10 02:24N 35°25' E 139°38'0 0.6
2017-Dec-10 02:00N 35°25' E 139°38'3 6.3
2017-Dec-10 01:31N 35°26' E 139°42'2 3.4
2017-Dec-10 00:59N 35°28' E 139°41'0 0.0
2017-Dec-10 00:29N 35°28' E 139°41'0 0.0
2017-Dec-09 23:59N 35°28' E 139°41'0 0.0
2017-Dec-09 23:29N 35°28' E 139°41'0 0.8
2017-Dec-09 22:59N 35°28' E 139°41'4 7.2
2017-Dec-09 22:30N 35°30' E 139°45'1 0.0
2017-Dec-09 06:55N 35°31' E 139°45'2 4.4
2017-Dec-09 06:29N 35°29' E 139°43'4 8.9
2017-Dec-09 06:00N 35°25' E 139°42'3 6.5
2017-Dec-09 05:29N 35°24' E 139°38'0 0.2
2017-Dec-09 05:00N 35°25' E 139°38'0 0.0
2017-Dec-09 04:30N 35°25' E 139°38'0 0.6
2017-Dec-09 03:59N 35°25' E 139°39'0 0.8
2017-Dec-09 03:29N 35°24' E 139°39'3 7.2
2017-Dec-09 03:00N 35°25' E 139°43'611.9
2017-Dec-09 02:29N 35°30' E 139°48'0 0.1
2017-Dec-08 22:02N 35°30' E 139°48'010.1
2017-Dec-08 22:00N 35°30' E 139°47'2 0.1
2017-Dec-08 05:08N 35°31' E 139°45'0 0.2
2017-Dec-08 04:59N 35°31' E 139°45'3 6.8
2017-Dec-08 04:30N 35°29' E 139°42'5 9.7
2017-Dec-08 04:00N 35°24' E 139°42'3 5.6
2017-Dec-08 03:28N 35°25' E 139°38'0 0.0
2017-Dec-08 02:58N 35°25' E 139°38'0 0.0
2017-Dec-08 02:28N 35°25' E 139°38'0 0.1
2017-Dec-08 02:00N 35°24' E 139°38'1 2.6
2017-Dec-08 01:30N 35°24' E 139°39'4 7.4
2017-Dec-08 01:00N 35°27' E 139°42'4 8.1
2017-Dec-08 00:28N 35°31' E 139°45'0 0.1
2017-Dec-07 23:58N 35°31' E 139°45'  
Track history (hours):
 
Tides and Currents Weather Stations Pressure Air Temp Water Temp Dewpoint Dewpoint Depression Visibility Wind Speed Wind Dir Waves Ship Positions

Dai28 Aominesanmaru

Last reported at 2017-Dec-15 06:58 UTC. Time now 2017-Dec-15 20:01 UTC.
Position N 35°31' E 139°45'.

Length 47 m.

Type: Tanker. MMSI: 431008216.

Date/timePositionNaut miles runAvg speedWind from/ knotsBaromVisibWave heightAir tempDewpointWater temp
2017-Dec-15 06:58N 35°31' E 139°45'1 3.1
2017-Dec-15 06:30N 35°30' E 139°44'5 9.1
2017-Dec-15 06:00N 35°25' E 139°42'4 6.1
2017-Dec-15 05:26N 35°25' E 139°38'0 0.0
2017-Dec-15 04:59N 35°25' E 139°38'0 0.0
2017-Dec-15 04:29N 35°25' E 139°38'0 0.8
2017-Dec-15 03:59N 35°25' E 139°38'7 4.8
2017-Dec-15 02:29N 35°27' E 139°46'0 0.0
2017-Dec-15 01:00N 35°27' E 139°46'3 6.0
2017-Dec-15 00:30N 35°30' E 139°45'1 0.0
2017-Dec-14 02:26N 35°31' E 139°45'2 4.3
2017-Dec-14 02:00N 35°29' E 139°43'3 4.9
2017-Dec-14 01:28N 35°28' E 139°40'0 0.0
2017-Dec-14 00:57N 35°28' E 139°40'0 0.0
2017-Dec-14 00:31N 35°28' E 139°40'0 0.0
2017-Dec-14 00:01N 35°28' E 139°40'0 0.0
2017-Dec-13 23:30N 35°28' E 139°40'3 5.8
2017-Dec-13 23:00N 35°30' E 139°44'2 3.1
2017-Dec-13 22:29N 35°31' E 139°45'0 0.0
2017-Dec-13 21:59N 35°31' E 139°45'0 0.0
2017-Dec-13 05:51N 35°31' E 139°45'1 3.4
2017-Dec-13 05:30N 35°31' E 139°46'8 2.9
2017-Dec-13 02:33N 35°34' E 139°56'310.5
2017-Dec-13 02:17N 35°33' E 139°59'310.5
2017-Dec-13 02:00N 35°33' E 140°03'2 3.4
2017-Dec-13 01:30N 35°33' E 140°05'0 0.0
2017-Dec-13 01:00N 35°33' E 140°05'0 0.0
2017-Dec-13 00:30N 35°33' E 140°05'0 0.0
2017-Dec-13 00:00N 35°33' E 140°05'1 2.3
2017-Dec-12 23:30N 35°33' E 140°03'1011.0
2017-Dec-12 22:38N 35°31' E 139°52'211.1
2017-Dec-12 22:27N 35°31' E 139°49'4 0.2
2017-Dec-12 02:08N 35°31' E 139°45'0 0.0
2017-Dec-12 01:59N 35°31' E 139°45'2 4.1
2017-Dec-12 01:22N 35°30' E 139°48'2 1.7
2017-Dec-12 00:14N 35°30' E 139°50'0 0.0
2017-Dec-11 22:01N 35°30' E 139°50'0 1.5
2017-Dec-11 21:59N 35°30' E 139°50'4 7.4
2017-Dec-11 21:24N 35°31' E 139°45'0 0.0
2017-Dec-11 21:00N 35°31' E 139°45'0 0.0
2017-Dec-11 02:17N 35°31' E 139°45'0 0.0
2017-Dec-11 02:00N 35°31' E 139°45'4 8.1
2017-Dec-11 01:28N 35°31' E 139°50'1 0.3
2017-Dec-10 21:10N 35°31' E 139°51'211.0
2017-Dec-10 20:59N 35°30' E 139°49'4 5.3
2017-Dec-10 20:17N 35°31' E 139°45'0 0.0
2017-Dec-10 19:56N 35°31' E 139°45'0 0.0
2017-Dec-10 05:05N 35°31' E 139°45'0 0.0
2017-Dec-10 04:59N 35°31' E 139°45'1 1.8
2017-Dec-10 04:31N 35°30' E 139°45'5 8.8
2017-Dec-10 03:59N 35°26' E 139°42'3 6.4
2017-Dec-10 03:30N 35°24' E 139°39'1 1.6
2017-Dec-10 03:00N 35°25' E 139°38'0 0.0
2017-Dec-10 02:24N 35°25' E 139°38'0 0.6
2017-Dec-10 02:00N 35°25' E 139°38'3 6.3
2017-Dec-10 01:31N 35°26' E 139°42'2 3.4
2017-Dec-10 00:59N 35°28' E 139°41'0 0.0
2017-Dec-10 00:29N 35°28' E 139°41'0 0.0
2017-Dec-09 23:59N 35°28' E 139°41'0 0.0
2017-Dec-09 23:29N 35°28' E 139°41'0 0.8
2017-Dec-09 22:59N 35°28' E 139°41'4 7.2
2017-Dec-09 22:30N 35°30' E 139°45'1 0.0
2017-Dec-09 06:55N 35°31' E 139°45'2 4.4
2017-Dec-09 06:29N 35°29' E 139°43'4 8.9
2017-Dec-09 06:00N 35°25' E 139°42'3 6.5
2017-Dec-09 05:29N 35°24' E 139°38'0 0.2
2017-Dec-09 05:00N 35°25' E 139°38'0 0.0
2017-Dec-09 04:30N 35°25' E 139°38'0 0.6
2017-Dec-09 03:59N 35°25' E 139°39'0 0.8
2017-Dec-09 03:29N 35°24' E 139°39'3 7.2
2017-Dec-09 03:00N 35°25' E 139°43'611.9
2017-Dec-09 02:29N 35°30' E 139°48'0 0.1
2017-Dec-08 22:02N 35°30' E 139°48'010.1
2017-Dec-08 22:00N 35°30' E 139°47'2 0.1
2017-Dec-08 05:08N 35°31' E 139°45'0 0.2
2017-Dec-08 04:59N 35°31' E 139°45'3 6.8
2017-Dec-08 04:30N 35°29' E 139°42'5 9.7
2017-Dec-08 04:00N 35°24' E 139°42'3 5.6
2017-Dec-08 03:28N 35°25' E 139°38'0 0.0
2017-Dec-08 02:58N 35°25' E 139°38'0 0.0
2017-Dec-08 02:28N 35°25' E 139°38'0 0.1
2017-Dec-08 02:00N 35°24' E 139°38'1 2.6
2017-Dec-08 01:30N 35°24' E 139°39'4 7.4
2017-Dec-08 01:00N 35°27' E 139°42'4 8.1
2017-Dec-08 00:28N 35°31' E 139°45'0 0.1
2017-Dec-07 23:58N 35°31' E 139°45'  

Dump ship's entire track history